createdAt,value
2023-10-23T00:02:31.989Z,7.47
2023-10-23T00:07:33.702Z,10.03
2023-10-23T00:12:35.465Z,7.10
2023-10-23T00:17:39.768Z,8.80
2023-10-23T00:22:41.549Z,7.67
2023-10-23T00:27:43.318Z,8.33
2023-10-23T00:32:45.064Z,6.87
2023-10-23T00:37:47.183Z,8.37
2023-10-23T00:42:49.089Z,4.50
2023-10-23T00:47:51.061Z,9.23
2023-10-23T00:52:52.947Z,8.03
2023-10-23T00:57:54.819Z,7.60
2023-10-23T01:02:56.632Z,8.00
2023-10-23T01:07:58.509Z,7.00
2023-10-23T01:13:00.250Z,8.87
2023-10-23T01:18:02.485Z,8.60
2023-10-23T01:23:04.681Z,8.00
2023-10-23T01:28:07.292Z,10.47
2023-10-23T01:33:09.142Z,9.47
2023-10-23T01:38:14.816Z,10.17
2023-10-23T01:43:16.636Z,7.63
2023-10-23T01:48:18.499Z,9.77
2023-10-23T01:53:20.284Z,11.13
2023-10-23T01:58:22.013Z,7.60
2023-10-23T02:03:23.896Z,6.27
2023-10-23T02:08:25.623Z,4.47
2023-10-23T02:13:27.312Z,8.60
2023-10-23T02:18:29.094Z,9.50
2023-10-23T02:23:44.781Z,7.00
2023-10-23T02:28:54.840Z,5.60
2023-10-23T02:33:56.843Z,5.97
2023-10-23T02:38:59.078Z,9.00
2023-10-23T02:44:00.897Z,6.53
2023-10-23T02:49:04.311Z,8.33
2023-10-23T02:54:06.190Z,6.73
2023-10-23T02:59:07.959Z,6.63
2023-10-23T03:04:09.787Z,8.87
2023-10-23T03:09:13.410Z,6.23
2023-10-23T03:14:15.845Z,10.07
2023-10-23T03:19:17.640Z,6.20
2023-10-23T03:24:19.728Z,7.33
2023-10-23T03:29:21.482Z,6.30
2023-10-23T03:34:26.408Z,8.57
2023-10-23T03:39:28.392Z,9.47
2023-10-23T03:44:30.154Z,9.93
2023-10-23T03:49:32.183Z,6.40
2023-10-23T03:54:33.972Z,7.43
2023-10-23T03:59:35.720Z,8.37
2023-10-23T04:04:37.625Z,8.17
2023-10-23T04:09:39.681Z,6.80
2023-10-23T04:14:41.559Z,8.33
2023-10-23T04:19:43.332Z,6.60
2023-10-23T04:24:45.119Z,6.87
2023-10-23T04:29:46.875Z,7.53
2023-10-23T04:34:48.568Z,9.77
2023-10-23T04:39:50.412Z,8.57
2023-10-23T04:44:52.215Z,9.03
2023-10-23T04:49:53.890Z,7.93
2023-10-23T04:54:55.864Z,8.17
2023-10-23T04:59:57.702Z,11.63
2023-10-23T05:04:59.533Z,8.97
2023-10-23T05:10:05.250Z,9.60
2023-10-23T05:15:09.314Z,12.73
2023-10-23T05:20:11.512Z,11.00
2023-10-23T05:25:13.367Z,9.87
2023-10-23T05:30:15.078Z,11.03
2023-10-23T05:35:16.831Z,9.53
2023-10-23T05:40:18.561Z,11.67
2023-10-23T05:45:20.319Z,10.57
2023-10-23T05:50:22.081Z,10.30
2023-10-23T05:55:24.896Z,11.63
2023-10-23T06:00:28.030Z,9.67
2023-10-23T06:05:29.756Z,10.47
2023-10-23T06:10:31.923Z,11.33
2023-10-23T06:15:33.934Z,16.60
2023-10-23T06:20:35.759Z,11.57
2023-10-23T06:25:37.518Z,10.80
2023-10-23T06:30:39.253Z,12.77
2023-10-23T06:35:41.148Z,16.30
2023-10-23T06:40:42.864Z,9.33
2023-10-23T06:46:01.245Z,12.60
2023-10-23T06:51:05.057Z,13.50
2023-10-23T06:56:09.888Z,11.60
2023-10-23T07:01:11.682Z,18.37
2023-10-23T07:06:13.646Z,13.80
2023-10-23T07:11:20.592Z,10.53
2023-10-23T07:16:23.106Z,10.07
2023-10-23T07:21:27.218Z,11.30
2023-10-23T07:26:29.168Z,14.07
2023-10-23T07:31:31.041Z,11.23
2023-10-23T07:36:32.849Z,13.33
2023-10-23T07:41:34.774Z,14.97
2023-10-23T07:46:36.646Z,12.10
2023-10-23T07:51:39.537Z,13.00
2023-10-23T07:56:41.364Z,13.93
2023-10-23T08:01:43.166Z,14.47
2023-10-23T08:06:44.889Z,14.73
2023-10-23T08:11:46.584Z,16.57
2023-10-23T08:16:48.450Z,15.50
2023-10-23T08:21:50.407Z,11.80
2023-10-23T08:26:52.726Z,11.17
2023-10-23T08:31:54.689Z,9.03
2023-10-23T08:36:56.517Z,12.90
2023-10-23T08:41:58.598Z,12.80
2023-10-23T08:47:01.137Z,13.90
2023-10-23T08:52:06.860Z,11.17
2023-10-23T08:57:09.802Z,13.10
2023-10-23T09:02:15.162Z,11.83
2023-10-23T09:07:17.031Z,12.33
2023-10-23T09:12:36.306Z,12.63
2023-10-23T09:17:38.852Z,13.33
2023-10-23T09:22:42.074Z,11.83
2023-10-23T09:27:44.533Z,14.90
2023-10-23T09:32:56.347Z,12.63
2023-10-23T09:37:58.856Z,12.33
2023-10-23T09:43:03.045Z,11.43
2023-10-23T09:48:06.243Z,11.40
2023-10-23T09:53:11.247Z,12.77
2023-10-23T09:58:16.063Z,13.57
2023-10-23T10:03:20.162Z,13.90
2023-10-23T10:08:22.817Z,15.63
2023-10-23T10:13:25.228Z,15.97
2023-10-23T10:18:27.385Z,12.37
2023-10-23T10:23:29.923Z,16.90
2023-10-23T10:28:31.652Z,16.50
2023-10-23T10:34:21.755Z,17.43
2023-10-23T10:38:55.131Z,13.07
2023-10-23T10:43:57.977Z,14.73
2023-10-23T10:48:59.770Z,13.73
2023-10-23T10:54:10.963Z,12.73
2023-10-23T10:59:12.705Z,14.70
2023-10-23T11:04:14.591Z,16.10
2023-10-23T11:09:21.932Z,14.83
2023-10-23T11:14:25.948Z,17.83
2023-10-23T11:19:28.625Z,13.90
2023-10-23T11:24:30.343Z,15.30
2023-10-23T11:29:43.362Z,11.07
2023-10-23T11:34:48.848Z,15.30
2023-10-23T11:39:51.976Z,13.43
2023-10-23T11:44:54.135Z,14.57
2023-10-23T11:49:56.912Z,16.13
2023-10-23T11:54:59.024Z,20.73
2023-10-23T12:00:08.066Z,14.10
2023-10-23T12:05:14.198Z,16.73
2023-10-23T12:10:20.421Z,11.77
2023-10-23T12:15:24.447Z,17.50
2023-10-23T12:20:27.941Z,10.93
2023-10-23T12:25:29.737Z,14.20
2023-10-23T12:30:31.553Z,13.43
2023-10-23T12:35:33.434Z,10.67
2023-10-23T12:40:37.307Z,10.23
2023-10-23T12:45:39.470Z,11.63
2023-10-23T12:50:41.334Z,12.77
2023-10-23T12:55:44.746Z,9.87
2023-10-23T13:00:46.650Z,10.57
2023-10-23T13:05:49.924Z,11.13
2023-10-23T13:10:51.726Z,10.57
2023-10-23T13:15:53.484Z,10.57
2023-10-23T13:21:32.112Z,11.20
2023-10-23T13:26:18.384Z,9.47
2023-10-23T13:31:20.185Z,10.90
2023-10-23T13:36:22.134Z,11.87
2023-10-23T13:41:24.157Z,12.00
2023-10-23T13:46:26.057Z,8.80
2023-10-23T13:51:29.105Z,14.77
2023-10-23T13:56:31.042Z,10.93
2023-10-23T14:01:33.065Z,10.80
2023-10-23T14:06:34.885Z,10.00
2023-10-23T14:12:00.029Z,12.83
2023-10-23T14:16:59.504Z,8.30
2023-10-23T14:22:01.432Z,11.00
2023-10-23T14:27:03.819Z,10.30
2023-10-23T14:32:06.433Z,12.93
2023-10-23T14:37:08.346Z,9.73
2023-10-23T14:42:10.217Z,9.37
2023-10-23T14:47:12.084Z,10.50
2023-10-23T14:52:14.432Z,10.23
2023-10-23T14:57:16.158Z,11.13
2023-10-23T15:02:17.932Z,13.90
2023-10-23T15:07:19.806Z,12.53
2023-10-23T15:12:21.586Z,10.57
2023-10-23T15:17:23.595Z,14.80
2023-10-23T15:22:26.379Z,13.57
2023-10-23T15:27:28.170Z,14.53
2023-10-23T15:32:31.122Z,15.43
2023-10-23T15:37:32.954Z,12.77
2023-10-23T15:42:35.290Z,15.20
2023-10-23T15:47:37.126Z,13.27
2023-10-23T15:52:38.946Z,13.37
2023-10-23T15:57:40.682Z,18.60
2023-10-23T16:02:42.428Z,17.63
2023-10-23T16:07:44.207Z,15.67
2023-10-23T16:12:46.035Z,13.83
2023-10-23T16:17:47.959Z,13.67
2023-10-23T16:22:49.876Z,14.50
2023-10-23T16:27:53.721Z,15.73
2023-10-23T16:32:56.013Z,20.40
2023-10-23T16:37:57.862Z,14.13
2023-10-23T16:43:00.694Z,12.90
2023-10-23T16:48:04.202Z,16.87
2023-10-23T16:53:06.118Z,17.70
2023-10-23T16:58:07.897Z,18.07
2023-10-23T17:03:09.709Z,16.73
2023-10-23T17:08:11.750Z,16.63
2023-10-23T17:13:13.537Z,15.07
2023-10-23T17:18:16.345Z,18.80
2023-10-23T17:23:19.474Z,20.33
2023-10-23T17:28:21.904Z,20.60
2023-10-23T17:33:24.137Z,18.87
2023-10-23T17:38:26.084Z,17.30
2023-10-23T17:43:28.283Z,21.23
2023-10-23T17:48:30.255Z,19.23
2023-10-23T17:53:32.601Z,24.30
2023-10-23T17:58:38.133Z,23.77
2023-10-23T18:03:41.335Z,21.77
2023-10-23T18:08:43.096Z,23.50
2023-10-23T18:13:45.124Z,24.30
2023-10-23T18:18:46.868Z,25.20
2023-10-23T18:23:48.590Z,26.13
2023-10-23T18:28:51.191Z,26.80
2023-10-23T18:33:52.926Z,28.13
2023-10-23T18:38:55.001Z,27.47
2023-10-23T18:43:56.766Z,23.17
2023-10-23T18:48:59.402Z,28.23
2023-10-23T18:54:01.161Z,26.60
2023-10-23T18:59:02.925Z,27.47
2023-10-23T19:04:05.166Z,28.73
2023-10-23T19:09:07.036Z,27.40
2023-10-23T19:14:08.750Z,25.63
2023-10-23T19:19:10.552Z,30.30
2023-10-23T19:24:15.431Z,25.73
2023-10-23T19:29:17.426Z,26.17
2023-10-23T19:34:19.381Z,27.13
2023-10-23T19:39:21.471Z,26.07
2023-10-23T19:44:23.443Z,30.30
2023-10-23T19:49:25.492Z,29.47
2023-10-23T19:54:36.672Z,28.47
2023-10-23T19:59:44.178Z,29.67
2023-10-23T20:04:46.605Z,33.00
2023-10-23T20:09:48.531Z,22.80
2023-10-23T20:14:50.219Z,40.93
2023-10-23T20:19:52.322Z,28.07
2023-10-23T20:24:54.132Z,24.53
2023-10-23T20:29:55.878Z,23.43
2023-10-23T20:34:57.632Z,20.67
2023-10-23T20:40:01.508Z,20.57
2023-10-23T20:45:07.190Z,20.00
2023-10-23T20:50:09.719Z,19.70
2023-10-23T20:55:12.897Z,21.53
2023-10-23T21:00:15.001Z,16.33
2023-10-23T21:05:16.803Z,14.10
2023-10-23T21:10:18.858Z,15.73
2023-10-23T21:15:20.612Z,17.43
2023-10-23T21:20:22.363Z,14.87
2023-10-23T21:25:24.480Z,19.03
2023-10-23T21:30:26.518Z,77.37
2023-10-23T21:35:28.282Z,20.40
2023-10-23T21:40:30.088Z,16.83
2023-10-23T21:45:34.991Z,12.30
2023-10-23T21:50:45.008Z,17.20
2023-10-23T21:55:46.960Z,13.93
2023-10-23T22:00:49.621Z,14.77
2023-10-23T22:05:51.737Z,17.03
2023-10-23T22:10:53.717Z,19.73
2023-10-23T22:15:55.480Z,22.13
2023-10-23T22:20:57.281Z,21.33
2023-10-23T22:26:00.480Z,26.03
2023-10-23T22:31:03.020Z,23.30
2023-10-23T22:36:05.050Z,27.20
2023-10-23T22:41:06.763Z,25.20
2023-10-23T22:46:08.861Z,29.83
2023-10-23T22:51:10.853Z,27.97
2023-10-23T22:56:18.014Z,30.00
2023-10-23T23:01:21.904Z,28.67
2023-10-23T23:06:28.301Z,30.70
2023-10-23T23:11:30.278Z,30.17
2023-10-23T23:16:36.566Z,28.87
2023-10-23T23:21:42.284Z,22.90
2023-10-23T23:26:59.218Z,24.67
2023-10-23T23:32:01.010Z,24.67
2023-10-23T23:37:02.935Z,22.60
2023-10-23T23:42:04.923Z,27.27
2023-10-23T23:47:06.677Z,19.50
2023-10-23T23:52:09.154Z,19.50
2023-10-23T23:57:12.080Z,20.37
